createdAt,value
2019-02-16T00:01:19.981Z,58.29
2019-02-16T00:04:09.753Z,58.33
2019-02-16T00:06:59.881Z,58.31
2019-02-16T00:09:49.809Z,58.21
2019-02-16T00:12:39.872Z,58.05
2019-02-16T00:15:29.682Z,57.96
2019-02-16T00:18:19.719Z,58.19
2019-02-16T00:21:09.495Z,58.24
2019-02-16T00:23:59.607Z,58.33
2019-02-16T00:26:49.392Z,58.35
2019-02-16T00:29:39.146Z,58.35
2019-02-16T00:32:28.975Z,58.48
2019-02-16T00:35:19.039Z,58.45
2019-02-16T00:38:08.476Z,58.52
2019-02-16T00:40:58.882Z,58.59
2019-02-16T00:43:48.978Z,58.54
2019-02-16T00:46:38.378Z,58.55
2019-02-16T00:49:28.184Z,58.47
2019-02-16T00:52:17.999Z,58.50
2019-02-16T00:55:07.831Z,58.48
2019-02-16T00:57:57.489Z,58.36
2019-02-16T01:00:47.373Z,58.34
2019-02-16T01:03:37.686Z,58.26
2019-02-16T01:06:27.264Z,58.25
2019-02-16T01:09:17.042Z,58.18
2019-02-16T01:12:07.163Z,58.21
2019-02-16T01:14:57.256Z,58.08
2019-02-16T01:17:46.886Z,58.01
2019-02-16T01:20:36.757Z,58.09
2019-02-16T01:23:27.211Z,58.18
2019-02-16T01:26:17.170Z,58.16
2019-02-16T01:29:07.269Z,58.15
2019-02-16T01:31:56.491Z,58.09
2019-02-16T01:34:46.452Z,58.02
2019-02-16T01:37:35.934Z,58.15
2019-02-16T01:40:26.071Z,58.07
2019-02-16T01:43:17.014Z,58.05
2019-02-16T01:46:06.606Z,58.03
2019-02-16T01:48:56.520Z,58.00
2019-02-16T01:51:47.075Z,57.97
2019-02-16T01:54:37.167Z,57.94
2019-02-16T01:57:27.014Z,57.82
2019-02-16T02:00:16.655Z,57.90
2019-02-16T02:03:06.567Z,57.95
2019-02-16T02:05:56.455Z,58.01
2019-02-16T02:08:46.594Z,58.04
2019-02-16T02:11:37.840Z,58.04
2019-02-16T02:14:27.613Z,58.05
2019-02-16T02:17:17.572Z,58.17
2019-02-16T02:20:08.013Z,58.15
2019-02-16T02:22:57.689Z,58.20
2019-02-16T02:25:47.574Z,58.23
2019-02-16T02:28:37.722Z,58.22
2019-02-16T02:31:28.536Z,58.28
2019-02-16T02:34:18.537Z,58.17
2019-02-16T02:37:08.675Z,58.34
2019-02-16T02:39:58.520Z,58.50
2019-02-16T02:42:48.967Z,58.57
2019-02-16T02:45:39.017Z,58.63
2019-02-16T02:48:28.962Z,58.63
2019-02-16T02:51:18.616Z,58.63
2019-02-16T02:54:08.668Z,58.58
2019-02-16T02:56:58.543Z,58.53
2019-02-16T02:59:47.943Z,58.56
2019-02-16T03:02:37.755Z,58.53
2019-02-16T03:05:27.901Z,58.52
2019-02-16T03:08:17.517Z,58.40
2019-02-16T03:11:07.520Z,58.48
2019-02-16T03:13:57.107Z,58.42
2019-02-16T03:16:46.755Z,58.37
2019-02-16T03:19:36.572Z,58.42
2019-02-16T03:22:46.903Z,58.38
2019-02-16T03:25:37.352Z,58.33
2019-02-16T03:29:06.836Z,58.29
2019-02-16T03:33:06.036Z,58.32
2019-02-16T03:36:47.492Z,58.31
2019-02-16T03:39:42.982Z,58.44
2019-02-16T03:42:32.973Z,58.50
2019-02-16T03:45:23.079Z,58.52
2019-02-16T03:48:12.885Z,58.50
2019-02-16T03:51:03.137Z,58.41
2019-02-16T03:53:53.210Z,58.36
2019-02-16T03:56:43.001Z,58.25
2019-02-16T03:59:32.831Z,58.35
2019-02-16T04:02:22.834Z,58.29
2019-02-16T04:05:13.110Z,58.34
2019-02-16T04:08:03.146Z,58.42
2019-02-16T04:10:53.338Z,58.42
2019-02-16T04:13:44.984Z,58.33
2019-02-16T04:16:35.120Z,58.35
2019-02-16T04:19:25.180Z,58.24
2019-02-16T04:22:24.224Z,58.43
2019-02-16T04:25:07.071Z,58.36
2019-02-16T04:27:56.734Z,58.39
2019-02-16T04:30:46.536Z,58.40
2019-02-16T04:33:36.979Z,58.43
2019-02-16T04:36:27.355Z,58.43
2019-02-16T04:39:16.821Z,58.47
2019-02-16T04:42:07.437Z,58.28
2019-02-16T04:44:57.649Z,58.29
2019-02-16T04:47:47.452Z,58.33
2019-02-16T04:50:36.991Z,58.36
2019-02-16T04:53:26.907Z,58.36
2019-02-16T04:56:16.860Z,58.39
2019-02-16T04:59:06.460Z,58.42
2019-02-16T05:01:55.933Z,58.42
2019-02-16T05:04:45.779Z,58.41
2019-02-16T05:07:35.631Z,58.39
2019-02-16T05:10:25.180Z,58.40
2019-02-16T05:13:14.806Z,58.42
2019-02-16T05:16:04.612Z,58.39
2019-02-16T05:18:54.269Z,58.35
2019-02-16T05:21:44.135Z,58.22
2019-02-16T05:24:34.339Z,58.32
2019-02-16T05:27:24.356Z,58.37
2019-02-16T05:30:14.549Z,58.30
2019-02-16T05:33:04.646Z,58.24
2019-02-16T05:35:54.283Z,58.22
2019-02-16T05:38:44.261Z,58.19
2019-02-16T05:41:34.148Z,58.19
2019-02-16T05:44:23.971Z,58.18
2019-02-16T05:47:13.709Z,58.19
2019-02-16T05:50:03.738Z,58.15
2019-02-16T05:52:54.672Z,58.23
2019-02-16T05:55:44.846Z,58.31
2019-02-16T05:58:34.662Z,58.37
2019-02-16T06:01:24.106Z,58.48
2019-02-16T06:04:14.166Z,58.50
2019-02-16T06:07:03.683Z,58.64
2019-02-16T06:09:53.859Z,58.75
2019-02-16T06:12:44.059Z,58.85
2019-02-16T06:15:33.927Z,58.87
2019-02-16T06:18:23.925Z,58.88
2019-02-16T06:21:13.618Z,58.90
2019-02-16T06:24:03.641Z,58.95
2019-02-16T06:26:53.446Z,59.01
2019-02-16T06:29:44.260Z,59.10
2019-02-16T06:32:34.037Z,59.07
2019-02-16T06:35:51.909Z,59.20
2019-02-16T06:38:41.496Z,59.24
2019-02-16T06:41:31.043Z,59.28
2019-02-16T06:44:21.247Z,59.28
2019-02-16T06:47:11.248Z,59.40
2019-02-16T06:50:01.316Z,59.54
2019-02-16T06:52:51.720Z,59.61
2019-02-16T06:55:49.072Z,59.78
2019-02-16T06:58:38.900Z,59.78
2019-02-16T07:01:28.770Z,59.90
2019-02-16T07:04:18.379Z,59.77
2019-02-16T07:07:08.532Z,58.63
2019-02-16T07:09:58.541Z,56.71
2019-02-16T07:12:48.496Z,54.41
2019-02-16T07:15:38.497Z,52.52
2019-02-16T07:18:37.991Z,50.70
2019-02-16T07:21:28.303Z,49.27
2019-02-16T07:24:18.597Z,47.59
2019-02-16T07:27:08.275Z,46.37
2019-02-16T07:29:57.956Z,45.79
2019-02-16T07:32:48.053Z,44.49
2019-02-16T07:35:37.854Z,44.24
2019-02-16T07:38:27.935Z,43.96
2019-02-16T07:41:17.889Z,44.10
2019-02-16T07:44:32.980Z,44.45
2019-02-16T07:47:29.274Z,44.53
2019-02-16T07:50:24.678Z,44.55
2019-02-16T07:53:43.151Z,44.44
2019-02-16T07:56:38.261Z,43.99
2019-02-16T07:59:37.026Z,44.08
2019-02-16T08:02:49.074Z,44.90
2019-02-16T08:06:03.887Z,43.84
2019-02-16T08:09:15.412Z,44.87
2019-02-16T08:12:21.361Z,45.16
2019-02-16T08:15:27.430Z,44.93
2019-02-16T08:18:39.456Z,45.28
2019-02-16T08:21:38.211Z,45.50
2019-02-16T08:24:46.127Z,44.73
2019-02-16T08:28:01.086Z,44.58
2019-02-16T08:31:03.247Z,43.51
2019-02-16T08:34:08.867Z,41.40
2019-02-16T08:37:07.557Z,40.61
2019-02-16T08:40:07.507Z,37.71
2019-02-16T08:43:34.649Z,38.16
2019-02-16T08:46:34.162Z,37.20
2019-02-16T08:49:42.861Z,38.45
2019-02-16T08:52:42.712Z,39.43
2019-02-16T08:55:51.592Z,38.91
2019-02-16T08:58:53.033Z,39.35
2019-02-16T09:01:52.076Z,38.31
2019-02-16T09:04:56.202Z,38.32
2019-02-16T09:07:52.031Z,38.23
2019-02-16T09:10:57.262Z,38.29
2019-02-16T09:13:56.915Z,37.67
2019-02-16T09:17:15.870Z,38.57
2019-02-16T09:20:24.972Z,38.49
2019-02-16T09:23:36.288Z,38.91
2019-02-16T09:26:46.363Z,37.50
2019-02-16T09:29:46.435Z,37.08
2019-02-16T09:32:57.839Z,36.47
2019-02-16T09:35:54.038Z,35.47
2019-02-16T09:39:08.010Z,34.94
2019-02-16T09:42:19.992Z,34.29
2019-02-16T09:45:27.088Z,33.64
2019-02-16T09:48:28.175Z,33.18
2019-02-16T09:51:40.131Z,34.49
2019-02-16T09:54:48.281Z,32.43
2019-02-16T09:57:56.089Z,32.13
2019-02-16T10:00:54.792Z,32.86
2019-02-16T10:03:51.876Z,31.37
2019-02-16T10:07:00.290Z,30.01
2019-02-16T10:09:59.586Z,29.16
2019-02-16T10:13:01.445Z,27.32
2019-02-16T10:16:02.654Z,26.82
2019-02-16T10:19:19.592Z,26.20
2019-02-16T10:22:47.234Z,26.15
2019-02-16T10:26:13.420Z,25.70
2019-02-16T10:29:45.336Z,26.80
2019-02-16T10:32:52.919Z,25.77
2019-02-16T10:36:02.133Z,26.85
2019-02-16T10:39:28.662Z,26.99
2019-02-16T10:42:29.399Z,26.83
2019-02-16T10:45:42.733Z,27.72
2019-02-16T10:48:39.835Z,27.08
2019-02-16T10:51:41.341Z,27.68
2019-02-16T10:54:41.455Z,27.27
2019-02-16T10:57:38.838Z,26.76
2019-02-16T11:00:38.621Z,25.42
2019-02-16T11:03:43.444Z,26.28
2019-02-16T11:06:51.517Z,24.46
2019-02-16T11:10:08.710Z,23.86
2019-02-16T11:13:05.837Z,22.96
2019-02-16T11:16:11.805Z,22.28
2019-02-16T11:19:26.705Z,21.04
2019-02-16T11:22:21.882Z,21.71
2019-02-16T11:25:32.083Z,20.24
2019-02-16T11:28:41.766Z,20.98
2019-02-16T11:31:50.086Z,18.63
2019-02-16T11:34:59.730Z,20.00
2019-02-16T11:37:58.934Z,19.82
2019-02-16T11:41:00.998Z,19.92
2019-02-16T11:44:13.406Z,19.66
2019-02-16T11:47:28.352Z,18.56
2019-02-16T11:50:42.036Z,19.04
2019-02-16T11:53:37.913Z,19.28
2019-02-16T11:56:49.623Z,19.42
2019-02-16T11:59:45.555Z,18.44
2019-02-16T12:02:55.107Z,18.69
2019-02-16T12:06:02.649Z,19.46
2019-02-16T12:08:59.749Z,19.88
2019-02-16T12:12:06.744Z,19.83
2019-02-16T12:15:18.850Z,19.32
2019-02-16T12:18:30.538Z,19.62
2019-02-16T12:21:38.214Z,19.33
2019-02-16T12:24:39.889Z,19.87
2019-02-16T12:27:44.926Z,18.86
2019-02-16T12:30:42.078Z,19.73
2019-02-16T12:33:42.063Z,17.63
2019-02-16T12:36:53.576Z,17.60
2019-02-16T12:40:00.820Z,18.30
2019-02-16T12:43:21.576Z,17.63
2019-02-16T12:46:17.600Z,18.92
2019-02-16T12:49:25.223Z,18.64
2019-02-16T12:52:37.217Z,18.18
2019-02-16T12:55:43.465Z,18.42
2019-02-16T12:58:40.827Z,19.33
2019-02-16T13:01:37.054Z,20.07
2019-02-16T13:04:48.944Z,19.99
2019-02-16T13:07:47.877Z,21.16
2019-02-16T13:10:49.922Z,22.25
2019-02-16T13:14:04.727Z,22.10
2019-02-16T13:17:16.554Z,22.51
2019-02-16T13:20:13.552Z,23.12
2019-02-16T13:23:10.899Z,24.10
2019-02-16T13:26:07.010Z,24.04
2019-02-16T13:29:16.050Z,24.59
2019-02-16T13:32:14.315Z,24.90
2019-02-16T13:35:22.362Z,25.99
2019-02-16T13:38:33.731Z,25.98
2019-02-16T13:41:33.554Z,26.59
2019-02-16T13:44:57.404Z,26.86
2019-02-16T13:47:55.691Z,26.60
2019-02-16T13:51:14.013Z,26.67
2019-02-16T13:54:10.685Z,27.02
2019-02-16T13:57:38.016Z,26.83
2019-02-16T14:00:45.832Z,27.60
2019-02-16T14:03:52.999Z,27.78
2019-02-16T14:06:50.172Z,27.83
2019-02-16T14:10:02.031Z,28.03
2019-02-16T14:13:14.374Z,28.56
2019-02-16T14:16:15.534Z,28.60
2019-02-16T14:19:06.178Z,29.11
2019-02-16T14:21:56.311Z,28.80
2019-02-16T14:24:49.657Z,28.99
2019-02-16T14:27:39.486Z,29.21
2019-02-16T14:30:29.513Z,29.11
2019-02-16T14:33:19.251Z,28.58
2019-02-16T14:36:08.798Z,29.12
2019-02-16T14:39:07.119Z,28.56
2019-02-16T14:41:57.838Z,29.12
2019-02-16T14:44:49.295Z,29.13
2019-02-16T14:47:38.832Z,29.16
2019-02-16T14:50:28.982Z,29.00
2019-02-16T14:53:18.732Z,29.26
2019-02-16T14:56:08.694Z,29.47
2019-02-16T14:58:58.855Z,28.75
2019-02-16T15:01:48.574Z,29.07
2019-02-16T15:04:37.810Z,29.80
2019-02-16T15:07:27.883Z,29.81
2019-02-16T15:10:17.705Z,29.46
2019-02-16T15:13:07.977Z,29.27
2019-02-16T15:15:57.661Z,29.63
2019-02-16T15:18:47.977Z,29.56
2019-02-16T15:21:37.766Z,29.30
2019-02-16T15:24:27.489Z,29.54
2019-02-16T15:30:08.892Z,30.02
2019-02-16T15:32:58.584Z,30.08
2019-02-16T15:35:47.931Z,29.89
2019-02-16T15:38:37.851Z,30.45
2019-02-16T15:41:27.674Z,30.50
2019-02-16T15:44:18.029Z,30.95
2019-02-16T15:47:07.922Z,31.05
2019-02-16T15:49:58.200Z,31.22
2019-02-16T15:52:48.080Z,31.47
2019-02-16T15:55:38.155Z,31.50
2019-02-16T15:58:28.241Z,31.93
2019-02-16T16:01:18.340Z,32.12
2019-02-16T16:04:08.981Z,32.07
2019-02-16T16:06:58.667Z,32.26
2019-02-16T16:10:07.957Z,32.49
2019-02-16T16:13:05.136Z,32.59
2019-02-16T16:16:08.021Z,33.05
2019-02-16T16:19:14.712Z,33.31
2019-02-16T16:22:28.329Z,33.68
2019-02-16T16:25:49.262Z,34.04
2019-02-16T16:29:00.212Z,34.32
2019-02-16T16:32:01.912Z,34.52
2019-02-16T16:35:09.635Z,34.82
2019-02-16T16:38:11.533Z,35.13
2019-02-16T16:41:20.352Z,35.59
2019-02-16T16:44:18.234Z,35.95
2019-02-16T16:47:30.234Z,36.27
2019-02-16T16:50:30.354Z,36.68
2019-02-16T16:53:41.860Z,37.02
2019-02-16T16:56:40.268Z,37.32
2019-02-16T17:00:03.998Z,37.61
2019-02-16T17:03:11.828Z,37.86
2019-02-16T17:06:18.905Z,38.14
2019-02-16T17:09:20.961Z,38.51
2019-02-16T17:12:34.593Z,38.87
2019-02-16T17:15:49.356Z,39.08
2019-02-16T17:18:49.083Z,39.30
2019-02-16T17:22:12.718Z,39.46
2019-02-16T17:25:12.874Z,39.63
2019-02-16T17:28:10.427Z,39.92
2019-02-16T17:31:13.417Z,40.16
2019-02-16T17:34:31.592Z,40.30
2019-02-16T17:37:37.124Z,40.68
2019-02-16T17:40:45.033Z,40.77
2019-02-16T17:43:43.664Z,41.09
2019-02-16T17:46:51.549Z,41.41
2019-02-16T17:50:00.320Z,41.61
2019-02-16T17:53:08.031Z,41.84
2019-02-16T17:56:04.361Z,42.01
2019-02-16T17:59:00.911Z,42.20
2019-02-16T18:02:10.976Z,42.37
2019-02-16T18:05:25.914Z,42.47
2019-02-16T18:08:36.500Z,42.59
2019-02-16T18:11:35.085Z,42.66
2019-02-16T18:14:51.265Z,42.72
2019-02-16T18:17:52.016Z,42.89
2019-02-16T18:20:52.981Z,42.99
2019-02-16T18:23:50.934Z,43.19
2019-02-16T18:26:56.753Z,43.37
2019-02-16T18:29:57.390Z,43.53
2019-02-16T18:33:15.180Z,43.62
2019-02-16T18:36:34.410Z,43.68
2019-02-16T18:39:49.375Z,43.83
2019-02-16T18:42:53.974Z,43.96
2019-02-16T18:45:54.909Z,44.09
2019-02-16T18:49:03.466Z,44.20
2019-02-16T18:51:59.945Z,44.27
2019-02-16T18:54:58.713Z,44.31
2019-02-16T18:58:06.603Z,44.42
2019-02-16T19:01:22.011Z,44.51
2019-02-16T19:04:34.230Z,44.47
2019-02-16T19:07:48.921Z,44.57
2019-02-16T19:10:48.590Z,44.75
2019-02-16T19:13:56.480Z,44.88
2019-02-16T19:16:57.939Z,44.92
2019-02-16T19:20:14.483Z,45.03
2019-02-16T19:23:23.560Z,45.14
2019-02-16T19:26:38.352Z,45.24
2019-02-16T19:29:45.632Z,45.35
2019-02-16T19:32:42.366Z,45.33
2019-02-16T19:35:45.578Z,45.64
2019-02-16T19:38:54.589Z,45.79
2019-02-16T19:42:12.701Z,46.00
2019-02-16T19:45:09.882Z,46.00
2019-02-16T19:48:28.038Z,46.09
2019-02-16T19:51:48.987Z,46.21
2019-02-16T19:55:00.942Z,46.24
2019-02-16T19:58:09.300Z,46.39
2019-02-16T20:01:06.957Z,46.57
2019-02-16T20:04:14.348Z,46.66
2019-02-16T20:07:32.192Z,46.75
2019-02-16T20:10:46.223Z,46.80
2019-02-16T20:13:49.242Z,46.82
2019-02-16T20:17:01.615Z,47.13
2019-02-16T20:20:00.334Z,47.18
2019-02-16T20:23:01.974Z,47.34
2019-02-16T20:26:16.612Z,47.45
2019-02-16T20:29:15.380Z,47.50
2019-02-16T20:32:18.280Z,47.54
2019-02-16T20:35:28.653Z,47.61
2019-02-16T20:38:29.252Z,47.65
2019-02-16T20:41:36.912Z,47.73
2019-02-16T20:44:40.017Z,47.75
2019-02-16T20:47:45.024Z,47.79
2019-02-16T20:50:53.808Z,47.90
2019-02-16T20:54:01.024Z,48.00
2019-02-16T20:57:03.813Z,48.29
2019-02-16T21:00:22.247Z,48.32
2019-02-16T21:03:24.072Z,48.40
2019-02-16T21:06:29.053Z,48.38
2019-02-16T21:09:42.724Z,48.55
2019-02-16T21:12:49.706Z,48.66
2019-02-16T21:16:01.576Z,48.69
2019-02-16T21:19:08.949Z,48.84
2019-02-16T21:22:16.431Z,49.06
2019-02-16T21:25:27.263Z,49.24
2019-02-16T21:28:42.856Z,49.36
2019-02-16T21:31:47.055Z,49.47
2019-02-16T21:34:52.141Z,49.44
2019-02-16T21:37:53.009Z,49.62
2019-02-16T21:40:55.586Z,49.73
2019-02-16T21:44:03.172Z,49.88
2019-02-16T21:47:15.132Z,49.99
2019-02-16T21:50:33.304Z,50.03
2019-02-16T21:53:48.368Z,50.19
2019-02-16T21:56:59.757Z,50.27
2019-02-16T22:00:10.976Z,50.39
2019-02-16T22:03:18.962Z,50.42
2019-02-16T22:06:31.002Z,50.55
2019-02-16T22:09:35.194Z,50.64
2019-02-16T22:12:32.118Z,50.77
2019-02-16T22:15:21.694Z,50.79
2019-02-16T22:18:10.963Z,50.90
2019-02-16T22:21:00.514Z,50.92
2019-02-16T22:23:49.983Z,50.95
2019-02-16T22:26:40.004Z,51.09
2019-02-16T22:29:29.679Z,51.30
2019-02-16T22:32:19.464Z,51.27
2019-02-16T22:35:18.207Z,51.37
2019-02-16T22:38:08.601Z,51.49
2019-02-16T22:40:58.511Z,51.48
2019-02-16T22:43:48.538Z,51.51
2019-02-16T22:46:38.202Z,51.50
2019-02-16T22:49:27.902Z,51.65
2019-02-16T22:52:17.633Z,51.71
2019-02-16T22:55:08.024Z,51.91
2019-02-16T22:57:57.891Z,52.05
2019-02-16T23:00:49.912Z,52.11
2019-02-16T23:03:40.029Z,52.24
2019-02-16T23:06:31.323Z,52.24
2019-02-16T23:09:27.374Z,52.35
2019-02-16T23:12:17.845Z,52.37
2019-02-16T23:15:10.287Z,52.47
2019-02-16T23:17:59.668Z,52.58
2019-02-16T23:20:50.130Z,52.60
2019-02-16T23:23:42.346Z,52.69
2019-02-16T23:26:32.290Z,52.70
2019-02-16T23:29:22.326Z,52.82
2019-02-16T23:32:12.477Z,53.40
2019-02-16T23:35:02.135Z,54.66
2019-02-16T23:37:51.966Z,54.46
2019-02-16T23:40:41.811Z,54.12
2019-02-16T23:43:32.448Z,53.83
2019-02-16T23:46:22.568Z,53.62
2019-02-16T23:49:12.457Z,53.50
2019-02-16T23:52:02.569Z,53.40
2019-02-16T23:54:52.196Z,53.44
2019-02-16T23:57:41.962Z,53.42
